createdAt,value
2018-10-07T00:00:28.681Z,75.20
2018-10-07T00:01:32.715Z,90.37
2018-10-07T00:02:36.771Z,93.40
2018-10-07T00:03:40.896Z,87.85
2018-10-07T00:04:44.926Z,77.08
2018-10-07T00:05:48.995Z,80.75
2018-10-07T00:06:53.130Z,84.40
2018-10-07T00:07:57.413Z,81.42
2018-10-07T00:09:01.612Z,95.62
2018-10-07T00:10:05.823Z,99.20
2018-10-07T00:11:10.055Z,88.87
2018-10-07T00:12:14.269Z,92.60
2018-10-07T00:13:18.469Z,92.37
2018-10-07T00:14:22.478Z,93.33
2018-10-07T00:15:26.638Z,103.70
2018-10-07T00:16:30.740Z,94.05
2018-10-07T00:17:34.819Z,96.50
2018-10-07T00:18:38.982Z,108.95
2018-10-07T00:19:43.096Z,85.50
2018-10-07T00:20:47.185Z,87.92
2018-10-07T00:21:51.216Z,90.25
2018-10-07T00:22:55.427Z,88.47
2018-10-07T00:23:59.722Z,98.52
2018-10-07T00:25:03.980Z,86.50
2018-10-07T00:26:08.524Z,87.88
2018-10-07T00:27:12.718Z,81.67
2018-10-07T00:28:16.963Z,86.55
2018-10-07T00:29:21.071Z,83.05
2018-10-07T00:30:25.171Z,69.58
2018-10-07T00:31:29.304Z,75.78
2018-10-07T00:32:33.436Z,74.80
2018-10-07T00:33:37.592Z,75.10
2018-10-07T00:34:41.799Z,73.35
2018-10-07T00:35:45.919Z,88.37
2018-10-07T00:36:50.132Z,100.30
2018-10-07T00:37:54.230Z,111.40
2018-10-07T00:38:58.376Z,98.72
2018-10-07T00:40:02.543Z,94.03
2018-10-07T00:41:06.772Z,97.53
2018-10-07T00:42:11.087Z,103.90
2018-10-07T00:43:15.227Z,96.70
2018-10-07T00:44:19.374Z,91.55
2018-10-07T00:45:23.535Z,82.75
2018-10-07T00:46:27.552Z,80.30
2018-10-07T00:47:31.718Z,67.78
2018-10-07T00:48:35.763Z,66.30
2018-10-07T00:49:39.824Z,62.78
2018-10-07T00:50:43.938Z,56.00
2018-10-07T00:51:47.998Z,57.83
2018-10-07T00:52:52.056Z,64.87
2018-10-07T00:53:56.177Z,63.98
2018-10-07T00:55:00.276Z,60.85
2018-10-07T00:56:04.538Z,62.05
2018-10-07T00:57:08.609Z,62.25
2018-10-07T00:58:12.790Z,61.73
2018-10-07T00:59:16.900Z,61.23
2018-10-07T01:00:20.941Z,73.33
2018-10-07T01:01:25.259Z,61.58
2018-10-07T01:02:29.395Z,70.37
2018-10-07T01:03:33.562Z,70.32
2018-10-07T01:04:37.744Z,74.65
2018-10-07T01:05:41.947Z,74.30
2018-10-07T01:06:46.140Z,69.55
2018-10-07T01:07:50.220Z,61.77
2018-10-07T01:08:54.286Z,59.35
2018-10-07T01:09:58.389Z,57.13
2018-10-07T01:11:02.510Z,42.98
2018-10-07T01:12:06.747Z,57.83
2018-10-07T01:13:10.852Z,67.80
2018-10-07T01:14:14.928Z,96.25
2018-10-07T01:15:19.062Z,102.15
2018-10-07T01:16:23.112Z,94.00
2018-10-07T01:17:27.220Z,98.97
2018-10-07T01:18:31.253Z,90.17
2018-10-07T01:19:35.292Z,95.40
2018-10-07T01:20:39.459Z,86.85
2018-10-07T01:21:43.520Z,85.25
2018-10-07T01:22:47.667Z,79.80
2018-10-07T01:23:51.963Z,85.40
2018-10-07T01:24:56.075Z,79.25
2018-10-07T01:26:00.190Z,76.33
2018-10-07T01:27:04.375Z,69.80
2018-10-07T01:28:08.531Z,66.20
2018-10-07T01:29:12.655Z,66.02
2018-10-07T01:30:20.892Z,68.20
2018-10-07T01:31:24.997Z,66.50
2018-10-07T01:32:29.091Z,65.97
2018-10-07T01:33:33.232Z,63.60
2018-10-07T01:34:37.322Z,64.47
2018-10-07T01:35:41.355Z,62.08
2018-10-07T01:36:45.420Z,75.97
2018-10-07T01:37:49.872Z,61.08
2018-10-07T01:38:53.911Z,68.37
2018-10-07T01:39:57.994Z,58.70
2018-10-07T01:41:02.117Z,56.65
2018-10-07T01:42:06.259Z,55.25
2018-10-07T01:43:10.458Z,62.40
2018-10-07T01:44:14.537Z,59.83
2018-10-07T01:45:18.811Z,58.38
2018-10-07T01:46:23.059Z,59.85
2018-10-07T01:47:27.132Z,54.85
2018-10-07T01:48:31.198Z,61.45
2018-10-07T01:49:35.344Z,58.17
2018-10-07T01:50:39.390Z,57.67
2018-10-07T01:51:43.422Z,59.45
2018-10-07T01:52:53.480Z,55.25
2018-10-07T01:53:57.513Z,54.70
2018-10-07T01:55:01.755Z,55.00
2018-10-07T01:56:06.415Z,54.05
2018-10-07T01:57:10.458Z,58.15
2018-10-07T01:58:19.667Z,53.08
2018-10-07T01:59:23.803Z,55.65
2018-10-07T02:00:27.876Z,51.85
2018-10-07T02:01:31.967Z,48.33
2018-10-07T02:02:36.030Z,48.10
2018-10-07T02:03:40.055Z,46.40
2018-10-07T02:04:44.078Z,43.13
2018-10-07T02:05:48.175Z,51.65
2018-10-07T02:06:52.216Z,43.78
2018-10-07T02:07:56.275Z,45.17
2018-10-07T02:09:00.344Z,42.45
2018-10-07T02:10:04.471Z,49.23
2018-10-07T02:11:08.636Z,52.10
2018-10-07T02:12:12.863Z,39.33
2018-10-07T02:13:16.991Z,44.00
2018-10-07T02:14:21.101Z,48.00
2018-10-07T02:15:25.338Z,45.65
2018-10-07T02:16:29.492Z,51.95
2018-10-07T02:17:33.527Z,43.33
2018-10-07T02:18:37.613Z,46.08
2018-10-07T02:19:41.679Z,47.03
2018-10-07T02:20:45.782Z,47.62
2018-10-07T02:21:50.089Z,43.95
2018-10-07T02:22:54.178Z,47.55
2018-10-07T02:23:58.293Z,47.67
2018-10-07T02:25:02.447Z,45.17
2018-10-07T02:26:06.658Z,46.70
2018-10-07T02:27:11.009Z,47.83
2018-10-07T02:28:15.041Z,50.80
2018-10-07T02:29:25.131Z,54.93
2018-10-07T02:30:29.265Z,48.80
2018-10-07T02:31:33.382Z,49.95
2018-10-07T02:32:37.513Z,50.08
2018-10-07T02:33:41.550Z,52.65
2018-10-07T02:34:45.668Z,51.90
2018-10-07T02:35:49.804Z,52.25
2018-10-07T02:36:53.908Z,45.67
2018-10-07T02:37:58.119Z,55.98
2018-10-07T02:39:02.326Z,52.03
2018-10-07T02:40:06.454Z,59.85
2018-10-07T02:41:10.526Z,49.58
2018-10-07T02:42:14.709Z,49.10
2018-10-07T02:43:18.904Z,50.98
2018-10-07T02:44:22.958Z,54.15
2018-10-07T02:45:27.047Z,50.15
2018-10-07T02:46:31.114Z,50.67
2018-10-07T02:47:35.179Z,44.90
2018-10-07T02:48:39.314Z,50.45
2018-10-07T02:49:43.379Z,47.00
2018-10-07T02:50:47.631Z,54.90
2018-10-07T02:51:51.796Z,53.00
2018-10-07T02:52:57.088Z,47.93
2018-10-07T02:54:01.396Z,53.13
2018-10-07T02:55:05.759Z,54.18
2018-10-07T02:56:09.942Z,45.52
2018-10-07T02:57:19.378Z,47.93
2018-10-07T02:58:23.610Z,48.80
2018-10-07T02:59:27.863Z,64.62
2018-10-07T03:00:32.099Z,54.93
2018-10-07T03:01:36.190Z,55.25
2018-10-07T03:02:40.300Z,51.48
2018-10-07T03:03:44.361Z,58.00
2018-10-07T03:04:48.589Z,52.03
2018-10-07T03:05:52.643Z,61.77
2018-10-07T03:06:56.804Z,53.92
2018-10-07T03:08:00.990Z,51.75
2018-10-07T03:09:06.108Z,49.40
2018-10-07T03:10:10.441Z,47.35
2018-10-07T03:11:14.507Z,52.08
2018-10-07T03:12:18.631Z,57.70
2018-10-07T03:13:27.807Z,56.88
2018-10-07T03:14:31.899Z,52.43
2018-10-07T03:15:36.067Z,54.80
2018-10-07T03:16:40.251Z,47.85
2018-10-07T03:17:44.323Z,51.45
2018-10-07T03:18:48.425Z,48.58
2018-10-07T03:19:52.517Z,56.55
2018-10-07T03:20:56.662Z,44.63
2018-10-07T03:22:00.754Z,50.08
2018-10-07T03:23:04.846Z,46.10
2018-10-07T03:24:08.934Z,47.55
2018-10-07T03:25:12.976Z,50.60
2018-10-07T03:26:17.071Z,47.43
2018-10-07T03:27:21.100Z,43.38
2018-10-07T03:28:25.154Z,45.88
2018-10-07T03:29:29.289Z,39.78
2018-10-07T03:30:33.303Z,41.80
2018-10-07T03:31:37.407Z,44.33
2018-10-07T03:32:41.490Z,41.25
2018-10-07T03:33:45.591Z,42.05
2018-10-07T03:34:49.682Z,40.50
2018-10-07T03:35:53.751Z,47.23
2018-10-07T03:36:57.894Z,47.58
2018-10-07T03:38:01.961Z,46.73
2018-10-07T03:39:07.332Z,46.02
2018-10-07T03:40:11.360Z,48.13
2018-10-07T03:41:15.423Z,51.40
2018-10-07T03:42:19.563Z,47.45
2018-10-07T03:43:23.711Z,46.40
2018-10-07T03:44:27.764Z,46.70
2018-10-07T03:45:31.795Z,47.65
2018-10-07T03:46:35.819Z,44.20
2018-10-07T03:47:39.965Z,44.63
2018-10-07T03:48:44.027Z,46.55
2018-10-07T03:49:48.086Z,41.37
2018-10-07T03:50:52.160Z,46.68
2018-10-07T03:51:56.565Z,46.15
2018-10-07T03:53:00.648Z,42.60
2018-10-07T03:54:04.753Z,43.70
2018-10-07T03:55:08.825Z,42.10
2018-10-07T03:56:12.859Z,43.92
2018-10-07T03:57:17.116Z,46.92
2018-10-07T03:58:21.255Z,42.48
2018-10-07T03:59:25.985Z,38.28
2018-10-07T04:00:30.099Z,38.70
2018-10-07T04:01:34.223Z,41.25
2018-10-07T04:02:43.573Z,37.78
2018-10-07T04:03:47.957Z,36.77
2018-10-07T04:04:52.001Z,41.80
2018-10-07T04:05:56.091Z,42.73
2018-10-07T04:07:00.235Z,35.65
2018-10-07T04:08:04.307Z,41.15
2018-10-07T04:09:10.330Z,44.77
2018-10-07T04:10:14.430Z,43.30
2018-10-07T04:11:18.589Z,45.15
2018-10-07T04:12:22.706Z,44.55
2018-10-07T04:13:26.794Z,46.55
2018-10-07T04:14:30.994Z,46.63
2018-10-07T04:15:35.141Z,42.93
2018-10-07T04:16:39.223Z,41.63
2018-10-07T04:17:43.260Z,40.90
2018-10-07T04:18:47.298Z,39.05
2018-10-07T04:19:51.394Z,38.08
2018-10-07T04:20:55.435Z,35.55
2018-10-07T04:21:59.730Z,39.65
2018-10-07T04:23:03.752Z,37.13
2018-10-07T04:24:07.882Z,42.62
2018-10-07T04:25:12.014Z,37.50
2018-10-07T04:26:16.125Z,36.35
2018-10-07T04:27:20.183Z,36.53
2018-10-07T04:28:24.256Z,41.42
2018-10-07T04:29:28.556Z,41.15
2018-10-07T04:30:32.702Z,37.03
2018-10-07T04:31:36.723Z,41.77
2018-10-07T04:32:40.860Z,41.92
2018-10-07T04:33:44.926Z,41.88
2018-10-07T04:34:49.006Z,40.48
2018-10-07T04:35:53.153Z,39.13
2018-10-07T04:36:57.198Z,42.55
2018-10-07T04:38:01.309Z,45.88
2018-10-07T04:39:07.791Z,36.20
2018-10-07T04:40:11.864Z,37.48
2018-10-07T04:41:16.194Z,39.42
2018-10-07T04:42:20.316Z,37.90
2018-10-07T04:43:24.458Z,34.45
2018-10-07T04:44:28.491Z,35.45
2018-10-07T04:45:32.531Z,34.45
2018-10-07T04:46:36.695Z,37.98
2018-10-07T04:47:40.843Z,39.25
2018-10-07T04:48:44.896Z,42.90
2018-10-07T04:49:49.005Z,32.10
2018-10-07T04:50:53.068Z,38.33
2018-10-07T04:51:57.156Z,44.93
2018-10-07T04:53:01.164Z,35.35
2018-10-07T04:54:05.483Z,37.67
2018-10-07T04:55:09.603Z,42.05
2018-10-07T04:56:13.700Z,37.80
2018-10-07T04:57:23.017Z,35.65
2018-10-07T04:58:27.103Z,39.00
2018-10-07T04:59:31.203Z,39.08
2018-10-07T05:00:35.341Z,38.35
2018-10-07T05:01:39.433Z,40.08
2018-10-07T05:02:43.617Z,36.28
2018-10-07T05:03:47.720Z,43.40
2018-10-07T05:04:51.974Z,42.58
2018-10-07T05:05:56.169Z,42.98
2018-10-07T05:07:00.386Z,42.62
2018-10-07T05:08:04.692Z,46.55
2018-10-07T05:09:10.691Z,38.45
2018-10-07T05:10:57.391Z,47.88
2018-10-07T05:12:03.648Z,36.20
2018-10-07T05:13:08.052Z,36.75
2018-10-07T05:14:12.984Z,33.42
2018-10-07T05:15:17.321Z,39.25
2018-10-07T05:16:31.631Z,38.30
2018-10-07T05:17:37.563Z,43.63
2018-10-07T05:18:41.803Z,39.03
2018-10-07T05:19:51.090Z,35.88
2018-10-07T05:20:55.963Z,40.08
2018-10-07T05:22:00.207Z,38.17
2018-10-07T05:23:04.444Z,40.85
2018-10-07T05:24:08.717Z,40.60
2018-10-07T05:25:12.887Z,40.75
2018-10-07T05:26:17.115Z,43.35
2018-10-07T05:27:21.276Z,46.60
2018-10-07T05:28:25.489Z,47.15
2018-10-07T05:29:29.662Z,50.17
2018-10-07T05:30:33.806Z,57.03
2018-10-07T05:31:37.987Z,72.03
2018-10-07T05:32:42.183Z,54.13
2018-10-07T05:33:46.331Z,55.38
2018-10-07T05:34:50.498Z,57.73
2018-10-07T05:35:54.642Z,56.68
2018-10-07T05:36:58.882Z,54.05
2018-10-07T05:38:03.040Z,65.08
2018-10-07T05:39:09.718Z,59.70
2018-10-07T05:40:13.899Z,65.05
2018-10-07T05:41:18.010Z,59.05
2018-10-07T05:42:22.184Z,61.60
2018-10-07T05:43:26.364Z,55.75
2018-10-07T05:44:30.519Z,50.65
2018-10-07T05:45:34.657Z,53.13
2018-10-07T05:46:38.886Z,52.53
2018-10-07T05:47:42.988Z,51.63
2018-10-07T05:48:47.182Z,54.08
2018-10-07T05:49:51.314Z,52.38
2018-10-07T05:50:55.524Z,49.77
2018-10-07T05:51:59.709Z,49.10
2018-10-07T05:53:03.861Z,50.40
2018-10-07T05:54:08.098Z,45.40
2018-10-07T05:55:12.325Z,50.03
2018-10-07T05:56:16.508Z,41.00
2018-10-07T05:57:20.716Z,43.83
2018-10-07T05:58:25.048Z,44.88
2018-10-07T05:59:30.084Z,45.10
2018-10-07T06:00:35.953Z,42.62
2018-10-07T06:01:44.665Z,43.73
2018-10-07T06:02:49.015Z,42.23
2018-10-07T06:04:58.423Z,41.88
2018-10-07T06:06:02.709Z,43.80
2018-10-07T06:07:07.464Z,43.60
2018-10-07T06:08:13.744Z,41.18
2018-10-07T06:09:23.149Z,42.23
2018-10-07T06:10:27.497Z,49.05
2018-10-07T06:11:31.702Z,45.33
2018-10-07T06:12:36.025Z,40.90
2018-10-07T06:13:40.397Z,41.58
2018-10-07T06:14:55.528Z,40.52
2018-10-07T06:15:59.613Z,48.23
2018-10-07T06:17:04.328Z,43.95
2018-10-07T06:18:08.532Z,39.67
2018-10-07T06:19:12.656Z,45.45
2018-10-07T06:20:16.767Z,45.33
2018-10-07T06:21:20.984Z,42.62
2018-10-07T06:22:25.551Z,39.90
2018-10-07T06:23:29.892Z,40.40
2018-10-07T06:24:34.851Z,40.38
2018-10-07T06:25:39.087Z,38.40
2018-10-07T06:26:43.223Z,40.80
2018-10-07T06:27:47.394Z,37.50
2018-10-07T06:28:51.635Z,37.70
2018-10-07T06:29:55.780Z,34.92
2018-10-07T06:30:59.927Z,36.05
2018-10-07T06:32:04.228Z,33.23
2018-10-07T06:33:08.438Z,32.48
2018-10-07T06:34:12.657Z,36.75
2018-10-07T06:35:16.920Z,33.85
2018-10-07T06:36:21.103Z,32.98
2018-10-07T06:37:25.243Z,36.33
2018-10-07T06:38:29.512Z,36.55
2018-10-07T06:39:33.733Z,31.77
2018-10-07T06:40:37.886Z,33.13
2018-10-07T06:41:42.037Z,30.75
2018-10-07T06:42:46.298Z,39.10
2018-10-07T06:43:50.808Z,32.75
2018-10-07T06:44:55.075Z,31.77
2018-10-07T06:45:59.299Z,32.40
2018-10-07T06:47:03.637Z,34.03
2018-10-07T06:48:07.847Z,33.60
2018-10-07T06:49:12.136Z,32.98
2018-10-07T06:50:16.509Z,33.00
2018-10-07T06:51:20.818Z,36.08
2018-10-07T06:52:25.116Z,35.33
2018-10-07T06:53:29.475Z,30.32
2018-10-07T06:54:33.695Z,35.13
2018-10-07T06:55:37.943Z,38.80
2018-10-07T06:56:42.128Z,39.20
2018-10-07T06:57:46.301Z,33.78
2018-10-07T06:58:50.508Z,35.60
2018-10-07T06:59:54.617Z,41.80
2018-10-07T07:00:58.902Z,45.60
2018-10-07T07:02:03.194Z,53.83
2018-10-07T07:03:07.424Z,46.42
2018-10-07T07:04:11.538Z,37.55
2018-10-07T07:05:15.723Z,39.10
2018-10-07T07:06:25.063Z,33.13
2018-10-07T07:07:29.158Z,34.75
2018-10-07T07:08:33.408Z,31.35
2018-10-07T07:09:37.588Z,31.25
2018-10-07T07:10:41.748Z,32.17
2018-10-07T07:11:45.921Z,32.03
2018-10-07T07:12:50.179Z,34.40
2018-10-07T07:13:55.069Z,36.85
2018-10-07T07:14:59.226Z,32.98
2018-10-07T07:16:03.469Z,35.28
2018-10-07T07:17:07.742Z,38.98
2018-10-07T07:18:11.934Z,31.17
2018-10-07T07:19:16.094Z,31.02
2018-10-07T07:20:20.261Z,35.43
2018-10-07T07:21:24.522Z,34.55
2018-10-07T07:22:28.830Z,37.15
2018-10-07T07:23:33.117Z,28.98
2018-10-07T07:24:37.357Z,30.75
2018-10-07T07:25:41.596Z,31.17
2018-10-07T07:26:45.774Z,28.10
2018-10-07T07:27:50.127Z,28.85
2018-10-07T07:28:54.338Z,28.52
2018-10-07T07:29:58.472Z,27.55
2018-10-07T07:31:02.555Z,31.57
2018-10-07T07:32:06.751Z,30.43
2018-10-07T07:33:10.907Z,31.45
2018-10-07T07:34:15.055Z,30.60
2018-10-07T07:35:19.237Z,29.18
2018-10-07T07:36:23.343Z,33.38
2018-10-07T07:37:27.449Z,29.35
2018-10-07T07:38:31.572Z,26.15
2018-10-07T07:39:35.711Z,28.95
2018-10-07T07:40:39.753Z,28.00
2018-10-07T07:41:45.148Z,27.07
2018-10-07T07:42:49.161Z,32.03
2018-10-07T07:43:53.414Z,35.10
2018-10-07T07:44:57.571Z,30.00
2018-10-07T07:46:01.610Z,27.30
2018-10-07T07:47:05.850Z,22.43
2018-10-07T07:48:09.944Z,26.93
2018-10-07T07:49:14.035Z,31.90
2018-10-07T07:50:18.078Z,25.30
2018-10-07T07:51:22.109Z,27.48
2018-10-07T07:52:26.163Z,26.20
2018-10-07T07:53:30.226Z,29.07
2018-10-07T07:54:34.339Z,25.55
2018-10-07T07:55:38.342Z,27.50
2018-10-07T07:56:42.431Z,27.53
2018-10-07T07:57:46.479Z,21.60
2018-10-07T07:58:50.559Z,26.68
2018-10-07T07:59:54.720Z,26.02
2018-10-07T08:00:58.825Z,24.23
2018-10-07T08:02:02.915Z,28.73
2018-10-07T08:03:07.362Z,24.55
2018-10-07T08:04:11.536Z,30.60
2018-10-07T08:05:16.411Z,23.95
2018-10-07T08:06:20.451Z,22.75
2018-10-07T08:07:24.684Z,26.93
2018-10-07T08:08:28.841Z,24.75
2018-10-07T08:09:38.353Z,24.98
2018-10-07T08:10:42.546Z,26.00
2018-10-07T08:11:46.631Z,18.95
2018-10-07T08:12:50.810Z,19.02
2018-10-07T08:13:54.894Z,23.80
2018-10-07T08:14:59.098Z,24.20
2018-10-07T08:16:03.312Z,23.27
2018-10-07T08:17:07.420Z,25.77
2018-10-07T08:18:11.494Z,23.50
2018-10-07T08:19:16.140Z,25.20
2018-10-07T08:20:20.670Z,25.97
2018-10-07T08:21:24.858Z,24.27
2018-10-07T08:22:28.996Z,26.90
2018-10-07T08:23:33.213Z,21.33
2018-10-07T08:24:42.239Z,22.42
2018-10-07T08:25:46.298Z,20.68
2018-10-07T08:26:50.493Z,23.95
2018-10-07T08:27:54.999Z,23.65
2018-10-07T08:28:59.100Z,21.80
2018-10-07T08:30:03.821Z,19.40
2018-10-07T08:31:07.903Z,22.25
2018-10-07T08:32:12.103Z,20.35
2018-10-07T08:33:16.218Z,20.85
2018-10-07T08:34:20.363Z,24.45
2018-10-07T08:35:24.516Z,22.42
2018-10-07T08:36:28.698Z,21.57
2018-10-07T08:37:33.293Z,18.45
2018-10-07T08:38:37.584Z,23.07
2018-10-07T08:39:41.665Z,17.37
2018-10-07T08:40:45.797Z,16.10
2018-10-07T08:41:50.109Z,20.08
2018-10-07T08:42:54.355Z,20.88
2018-10-07T08:43:58.591Z,31.82
2018-10-07T08:45:02.794Z,16.35
2018-10-07T08:46:07.186Z,21.90
2018-10-07T08:47:11.457Z,18.57
2018-10-07T08:48:15.608Z,11.23
2018-10-07T08:49:19.729Z,21.68
2018-10-07T08:50:23.783Z,12.80
2018-10-07T08:51:27.871Z,14.33
2018-10-07T08:52:32.854Z,11.15
2018-10-07T08:53:37.069Z,12.70
2018-10-07T08:54:41.711Z,13.65
2018-10-07T08:55:45.752Z,12.80
2018-10-07T08:56:50.058Z,15.55
2018-10-07T08:57:54.146Z,12.23
2018-10-07T08:58:58.239Z,11.97
2018-10-07T09:00:15.472Z,9.73
2018-10-07T09:01:20.444Z,12.33
2018-10-07T09:02:24.681Z,10.60
2018-10-07T09:03:28.823Z,12.18
2018-10-07T09:04:32.920Z,10.98
2018-10-07T09:05:37.016Z,16.77
2018-10-07T09:06:41.090Z,10.30
2018-10-07T09:07:45.200Z,8.30
2018-10-07T09:08:49.346Z,12.20
2018-10-07T09:09:53.448Z,10.38
2018-10-07T09:10:57.528Z,8.23
2018-10-07T09:12:01.608Z,11.78
2018-10-07T09:13:05.688Z,8.75
2018-10-07T09:14:09.989Z,12.03
2018-10-07T09:15:14.115Z,12.95
2018-10-07T09:16:18.242Z,13.35
2018-10-07T09:17:22.269Z,14.40
2018-10-07T09:18:26.364Z,8.75
2018-10-07T09:19:30.433Z,7.37
2018-10-07T09:20:34.612Z,7.80
2018-10-07T09:21:38.766Z,11.25
2018-10-07T09:22:42.837Z,10.32
2018-10-07T09:23:46.952Z,8.20
2018-10-07T09:24:51.050Z,8.23
2018-10-07T09:25:55.632Z,8.07
2018-10-07T09:27:00.056Z,12.13
2018-10-07T09:28:04.339Z,9.45
2018-10-07T09:29:14.597Z,11.75
2018-10-07T09:30:18.816Z,10.00
2018-10-07T09:31:24.131Z,10.65
2018-10-07T09:32:28.486Z,11.83
2018-10-07T09:33:34.349Z,11.48
2018-10-07T09:34:38.553Z,12.43
2018-10-07T09:35:42.775Z,11.30
2018-10-07T09:36:47.248Z,13.45
2018-10-07T09:37:51.494Z,12.90
2018-10-07T09:38:55.666Z,12.35
2018-10-07T09:39:59.857Z,14.67
2018-10-07T09:41:04.231Z,12.17
2018-10-07T09:42:14.336Z,14.73
2018-10-07T09:43:18.620Z,15.93
2018-10-07T09:44:23.184Z,15.53
2018-10-07T09:45:27.507Z,18.52
2018-10-07T09:46:31.821Z,16.30
2018-10-07T09:47:36.310Z,16.45
2018-10-07T09:48:40.779Z,16.87
2018-10-07T09:49:45.160Z,17.00
2018-10-07T09:50:49.505Z,18.82
2018-10-07T09:51:53.609Z,19.73
2018-10-07T09:52:57.896Z,20.90
2018-10-07T09:54:02.964Z,24.37
2018-10-07T09:55:07.250Z,22.90
2018-10-07T09:56:11.395Z,26.43
2018-10-07T09:57:15.534Z,23.67
2018-10-07T09:58:19.740Z,23.22
2018-10-07T09:59:23.948Z,26.00
2018-10-07T10:00:41.620Z,27.77
2018-10-07T10:01:45.745Z,26.05
2018-10-07T10:02:49.827Z,28.77
2018-10-07T10:03:55.263Z,27.30
2018-10-07T10:04:59.613Z,28.73
2018-10-07T10:06:04.005Z,35.30
2018-10-07T10:28:21.004Z,44.63
2018-10-07T10:29:30.398Z,38.20
2018-10-07T10:33:50.062Z,43.08
2018-10-07T10:35:14.205Z,38.53
2018-10-07T10:38:30.403Z,37.03
2018-10-07T10:40:10.027Z,32.87
2018-10-07T10:41:22.760Z,31.62
2018-10-07T10:43:50.856Z,31.55
2018-10-07T10:44:58.155Z,35.05
2018-10-07T10:46:10.844Z,32.23
2018-10-07T10:47:25.402Z,32.05
2018-10-07T10:48:40.322Z,32.45
2018-10-07T10:49:55.370Z,25.32
2018-10-07T10:51:10.980Z,25.17
2018-10-07T10:52:22.880Z,25.80
2018-10-07T10:53:40.035Z,28.40
2018-10-07T10:54:52.741Z,19.85
2018-10-07T10:56:16.729Z,19.57
2018-10-07T10:57:42.606Z,20.08
2018-10-07T10:59:10.020Z,17.65
2018-10-07T11:00:15.835Z,15.00
2018-10-07T11:01:28.791Z,16.50
2018-10-07T11:04:44.612Z,13.58
2018-10-07T11:05:57.723Z,8.90
2018-10-07T11:07:27.053Z,10.95
2018-10-07T11:09:03.488Z,11.25
2018-10-07T11:10:19.668Z,12.03
2018-10-07T11:11:27.875Z,8.23
2018-10-07T11:14:47.214Z,8.08
2018-10-07T11:16:03.108Z,6.60
2018-10-07T11:17:30.597Z,7.50
2018-10-07T11:20:50.755Z,13.70
2018-10-07T11:22:06.314Z,9.43
2018-10-07T11:24:25.735Z,8.40
2018-10-07T11:26:17.025Z,5.25
2018-10-07T11:27:33.631Z,5.60
2018-10-07T11:30:00.267Z,7.03
2018-10-07T11:31:15.355Z,4.67
2018-10-07T11:33:26.070Z,4.20
2018-10-07T11:35:37.909Z,5.58
2018-10-07T11:38:07.258Z,4.53
2018-10-07T11:39:17.796Z,3.60
2018-10-07T11:40:35.896Z,3.35
2018-10-07T11:41:48.034Z,5.47
2018-10-07T11:43:59.064Z,5.25
2018-10-07T11:45:10.817Z,4.80
2018-10-07T11:46:22.806Z,4.33
2018-10-07T11:48:35.091Z,5.15
2018-10-07T11:49:52.230Z,8.55
2018-10-07T11:51:01.895Z,3.95
2018-10-07T11:52:17.404Z,5.12
2018-10-07T11:53:34.935Z,4.28
2018-10-07T11:55:09.406Z,4.03
2018-10-07T11:56:13.918Z,4.03
2018-10-07T11:57:18.297Z,3.60
2018-10-07T11:58:22.529Z,4.22
2018-10-07T11:59:26.666Z,3.87
2018-10-07T12:00:30.943Z,3.20
2018-10-07T12:01:36.013Z,3.92
2018-10-07T12:02:40.456Z,5.15
2018-10-07T12:03:44.724Z,4.45
2018-10-07T12:04:49.003Z,5.15
2018-10-07T12:05:53.321Z,5.20
2018-10-07T12:06:58.167Z,5.60
2018-10-07T12:08:02.521Z,5.10
2018-10-07T12:09:09.031Z,3.33
2018-10-07T12:10:14.086Z,3.08
2018-10-07T12:11:19.571Z,5.90
2018-10-07T12:12:24.126Z,4.20
2018-10-07T12:13:28.549Z,3.55
2018-10-07T12:14:32.922Z,2.77
2018-10-07T12:15:38.620Z,6.15
2018-10-07T12:16:43.071Z,5.35
2018-10-07T12:17:47.495Z,2.77
2018-10-07T12:18:52.328Z,3.77
2018-10-07T12:19:57.398Z,2.75
2018-10-07T12:21:01.933Z,3.12
2018-10-07T12:22:06.593Z,2.40
2018-10-07T12:23:12.124Z,1.72
2018-10-07T12:24:21.399Z,2.70
2018-10-07T12:25:26.237Z,1.75
2018-10-07T12:26:30.925Z,1.72
2018-10-07T12:27:43.204Z,1.52
2018-10-07T12:28:47.999Z,4.00
2018-10-07T12:29:52.856Z,1.37
2018-10-07T12:30:57.455Z,2.05
2018-10-07T12:32:02.515Z,3.45
2018-10-07T12:33:07.011Z,4.70
2018-10-07T12:34:11.480Z,2.67
2018-10-07T12:35:15.633Z,2.83
2018-10-07T12:36:20.168Z,0.98
2018-10-07T12:37:26.158Z,1.55
2018-10-07T12:38:30.316Z,1.60
2018-10-07T12:39:35.082Z,2.40
2018-10-07T12:40:40.223Z,0.80
2018-10-07T12:41:44.531Z,1.10
2018-10-07T12:42:49.124Z,1.22
2018-10-07T12:43:53.720Z,1.42
2018-10-07T12:44:58.368Z,1.75
2018-10-07T12:46:03.163Z,1.62
2018-10-07T12:47:08.063Z,1.05
2018-10-07T12:48:13.043Z,1.77
2018-10-07T12:49:17.405Z,1.27
2018-10-07T12:50:21.780Z,0.75
2018-10-07T12:51:26.332Z,1.97
2018-10-07T12:52:30.568Z,2.62
2018-10-07T12:53:36.641Z,0.88
2018-10-07T12:54:40.870Z,3.72
2018-10-07T12:55:45.056Z,1.27
2018-10-07T12:56:49.421Z,1.85
2018-10-07T12:57:56.019Z,0.50
2018-10-07T12:59:00.634Z,3.08
2018-10-07T13:00:05.057Z,1.60
2018-10-07T13:01:09.209Z,0.98
2018-10-07T13:02:13.287Z,1.17
2018-10-07T13:03:17.506Z,2.00
2018-10-07T13:04:21.623Z,0.82
2018-10-07T13:05:25.686Z,2.08
2018-10-07T13:06:30.321Z,1.15
2018-10-07T13:07:34.505Z,1.70
2018-10-07T13:08:39.851Z,3.35
2018-10-07T13:09:44.330Z,1.50
2018-10-07T13:10:48.473Z,1.47
2018-10-07T13:11:52.758Z,1.77
2018-10-07T13:12:57.928Z,1.62
2018-10-07T13:14:02.176Z,1.67
2018-10-07T13:15:06.500Z,4.27
2018-10-07T13:16:10.608Z,1.25
2018-10-07T13:17:15.398Z,1.92
2018-10-07T13:18:19.488Z,1.42
2018-10-07T13:19:23.661Z,2.00
2018-10-07T13:20:28.777Z,2.90
2018-10-07T13:21:33.948Z,3.00
2018-10-07T13:22:38.122Z,3.65
2018-10-07T13:23:42.385Z,1.00
2018-10-07T13:24:48.425Z,1.75
2018-10-07T13:25:52.785Z,0.85
2018-10-07T13:26:56.933Z,1.25
2018-10-07T13:28:01.112Z,1.12
2018-10-07T13:30:14.487Z,2.00
2018-10-07T13:31:19.143Z,2.85
2018-10-07T13:32:23.271Z,3.08
2018-10-07T13:33:27.478Z,1.47
2018-10-07T13:34:32.062Z,3.15
2018-10-07T13:35:36.771Z,1.20
2018-10-07T13:36:41.028Z,1.50
2018-10-07T13:37:45.181Z,1.15
2018-10-07T13:38:49.227Z,2.47
2018-10-07T13:39:59.270Z,2.05
2018-10-07T13:41:03.256Z,2.45
2018-10-07T13:42:07.426Z,1.98
2018-10-07T13:43:11.590Z,2.40
2018-10-07T13:44:15.702Z,5.40
2018-10-07T13:45:19.814Z,2.98
2018-10-07T13:46:23.975Z,2.42
2018-10-07T13:47:31.442Z,2.35
2018-10-07T13:48:35.563Z,3.27
2018-10-07T13:49:39.787Z,2.75
2018-10-07T13:50:43.854Z,1.80
2018-10-07T13:51:47.987Z,3.55
2018-10-07T13:52:52.106Z,2.33
2018-10-07T13:53:56.164Z,3.60
2018-10-07T13:55:00.563Z,3.62
2018-10-07T13:56:04.651Z,2.37
2018-10-07T13:57:08.942Z,1.45
2018-10-07T13:58:14.176Z,3.98
2018-10-07T13:59:18.273Z,2.55
2018-10-07T14:00:22.415Z,3.52
2018-10-07T14:01:26.576Z,1.95
2018-10-07T14:02:30.632Z,3.87
2018-10-07T14:03:34.821Z,2.62
2018-10-07T14:04:38.935Z,1.85
2018-10-07T14:05:43.235Z,4.22
2018-10-07T14:06:47.963Z,3.37
2018-10-07T14:07:52.475Z,2.45
2018-10-07T14:08:56.591Z,2.60
2018-10-07T14:10:00.799Z,2.37
2018-10-07T14:11:05.156Z,1.40
2018-10-07T14:12:09.448Z,1.52
2018-10-07T14:13:13.685Z,1.40
2018-10-07T14:14:17.953Z,1.27
2018-10-07T14:15:22.319Z,1.87
2018-10-07T14:16:26.701Z,3.08
2018-10-07T14:17:30.923Z,3.77
2018-10-07T14:18:35.198Z,1.82
2018-10-07T14:19:39.515Z,2.83
2018-10-07T14:20:43.906Z,3.20
2018-10-07T14:21:49.242Z,3.62
2018-10-07T14:22:53.439Z,2.47
2018-10-07T14:23:59.993Z,1.82
2018-10-07T14:25:09.195Z,4.95
2018-10-07T14:26:13.985Z,5.90
2018-10-07T14:27:19.032Z,4.95
2018-10-07T14:28:26.520Z,3.47
2018-10-07T14:29:32.441Z,4.65
2018-10-07T14:30:36.674Z,4.00
2018-10-07T14:31:42.086Z,4.95
2018-10-07T14:32:46.304Z,3.83
2018-10-07T14:33:51.800Z,1.65
2018-10-07T14:34:59.907Z,4.22
2018-10-07T14:36:04.139Z,2.37
2018-10-07T14:37:08.383Z,2.55
2018-10-07T14:38:13.385Z,4.70
2018-10-07T14:39:17.822Z,5.45
2018-10-07T14:40:21.924Z,5.97
2018-10-07T14:41:26.178Z,2.62
2018-10-07T14:42:30.349Z,4.22
2018-10-07T14:43:34.888Z,4.20
2018-10-07T14:44:39.094Z,2.67
2018-10-07T14:45:43.399Z,3.92
2018-10-07T14:46:48.525Z,2.70
2018-10-07T14:47:52.801Z,3.60
2018-10-07T14:48:57.274Z,2.85
2018-10-07T14:50:01.535Z,4.55
2018-10-07T14:51:05.796Z,3.55
2018-10-07T14:52:10.515Z,5.72